createdAt,value
2023-01-07T00:00:03.541Z,11.10
2023-01-07T00:02:29.981Z,11.70
2023-01-07T00:04:56.313Z,10.73
2023-01-07T00:07:22.603Z,10.80
2023-01-07T00:09:48.867Z,10.23
2023-01-07T00:12:15.272Z,10.60
2023-01-07T00:14:43.965Z,9.70
2023-01-07T00:17:10.259Z,9.27
2023-01-07T00:19:36.529Z,10.00
2023-01-07T00:22:02.769Z,9.57
2023-01-07T00:24:29.058Z,9.55
2023-01-07T00:26:55.590Z,9.70
2023-01-07T00:29:21.881Z,9.68
2023-01-07T00:31:48.239Z,9.65
2023-01-07T00:34:14.670Z,9.60
2023-01-07T00:36:44.977Z,8.35
2023-01-07T00:39:14.345Z,8.25
2023-01-07T00:41:40.731Z,7.28
2023-01-07T00:44:07.663Z,7.80
2023-01-07T00:46:34.121Z,7.40
2023-01-07T00:49:01.437Z,7.88
2023-01-07T00:51:27.752Z,7.15
2023-01-07T00:53:54.461Z,7.32
2023-01-07T00:56:20.782Z,6.72
2023-01-07T00:58:47.096Z,7.15
2023-01-07T01:01:13.620Z,7.05
2023-01-07T01:03:40.313Z,7.30
2023-01-07T01:06:08.140Z,7.00
2023-01-07T01:08:34.598Z,6.78
2023-01-07T01:11:07.555Z,7.95
2023-01-07T01:13:34.146Z,7.85
2023-01-07T01:16:00.760Z,7.38
2023-01-07T01:18:27.154Z,8.00
2023-01-07T01:20:55.084Z,8.57
2023-01-07T01:23:21.524Z,9.10
2023-01-07T01:25:47.854Z,8.57
2023-01-07T01:28:14.210Z,8.90
2023-01-07T01:30:40.552Z,8.60
2023-01-07T01:33:06.886Z,8.48
2023-01-07T01:35:33.212Z,8.57
2023-01-07T01:38:00.251Z,8.23
2023-01-07T01:40:30.028Z,8.30
2023-01-07T01:42:56.347Z,9.10
2023-01-07T01:45:22.660Z,8.38
2023-01-07T01:47:51.969Z,9.45
2023-01-07T01:50:21.441Z,9.45
2023-01-07T01:52:51.509Z,9.23
2023-01-07T01:55:19.262Z,9.65
2023-01-07T01:57:46.943Z,9.02
2023-01-07T02:00:13.564Z,9.15
2023-01-07T02:02:44.028Z,9.13
2023-01-07T02:05:10.588Z,8.82
2023-01-07T02:07:36.923Z,9.77
2023-01-07T02:10:14.754Z,8.85
2023-01-07T02:12:46.071Z,9.15
2023-01-07T02:15:13.979Z,8.40
2023-01-07T02:17:47.069Z,8.98
2023-01-07T02:20:16.470Z,8.52
2023-01-07T02:22:52.019Z,8.52
2023-01-07T02:25:37.501Z,8.13
2023-01-07T02:28:30.209Z,8.20
2023-01-07T02:31:15.325Z,8.35
2023-01-07T02:33:47.867Z,8.35
2023-01-07T02:36:20.192Z,8.60
2023-01-07T02:39:01.760Z,7.70
2023-01-07T02:41:46.771Z,8.65
2023-01-07T02:44:19.201Z,7.45
2023-01-07T02:46:45.501Z,8.10
2023-01-07T02:49:14.687Z,7.63
2023-01-07T02:51:41.473Z,7.95
2023-01-07T02:54:09.732Z,7.53
2023-01-07T02:56:36.018Z,7.32
2023-01-07T02:59:17.658Z,8.02
2023-01-07T03:02:09.610Z,8.45
2023-01-07T03:04:51.135Z,7.47
2023-01-07T03:07:35.582Z,7.65
2023-01-07T03:10:11.540Z,7.32
2023-01-07T03:12:37.823Z,7.57
2023-01-07T03:15:22.515Z,7.10
2023-01-07T03:17:52.774Z,7.00
2023-01-07T03:20:20.520Z,6.93
2023-01-07T03:22:47.200Z,6.38
2023-01-07T03:25:14.482Z,6.80
2023-01-07T03:27:42.600Z,6.03
2023-01-07T03:30:11.364Z,6.82
2023-01-07T03:32:57.921Z,6.60
2023-01-07T03:35:25.044Z,6.18
2023-01-07T03:37:51.841Z,5.88
2023-01-07T03:40:19.341Z,6.93
2023-01-07T03:42:47.847Z,6.50
2023-01-07T03:45:18.554Z,5.88
2023-01-07T03:47:46.327Z,6.53
2023-01-07T03:50:12.639Z,5.95
2023-01-07T03:52:38.971Z,6.75
2023-01-07T03:55:05.653Z,6.15
2023-01-07T03:57:32.267Z,5.90
2023-01-07T03:59:58.778Z,5.47
2023-01-07T04:02:25.359Z,6.85
2023-01-07T04:04:51.806Z,6.05
2023-01-07T04:07:18.090Z,6.05
2023-01-07T04:09:47.107Z,6.65
2023-01-07T04:12:14.136Z,5.97
2023-01-07T04:14:40.439Z,6.47
2023-01-07T04:17:06.735Z,5.85
2023-01-07T04:19:33.365Z,5.45
2023-01-07T04:21:59.728Z,5.90
2023-01-07T04:24:26.019Z,5.93
2023-01-07T04:26:52.309Z,5.57
2023-01-07T04:29:20.851Z,5.78
2023-01-07T04:31:47.370Z,5.90
2023-01-07T04:34:13.779Z,6.07
2023-01-07T04:36:40.050Z,4.82
2023-01-07T04:39:06.399Z,5.47
2023-01-07T04:41:32.789Z,6.15
2023-01-07T04:43:59.113Z,6.05
2023-01-07T04:46:25.555Z,5.70
2023-01-07T04:48:51.896Z,4.78
2023-01-07T04:51:20.273Z,5.32
2023-01-07T04:53:47.037Z,6.50
2023-01-07T04:56:13.376Z,5.47
2023-01-07T04:58:39.747Z,5.38
2023-01-07T05:01:07.036Z,5.25
2023-01-07T05:03:36.392Z,4.60
2023-01-07T05:06:03.070Z,4.78
2023-01-07T05:08:29.755Z,5.15
2023-01-07T05:10:56.106Z,5.05
2023-01-07T05:13:24.157Z,5.13
2023-01-07T05:15:50.533Z,5.15
2023-01-07T05:18:16.968Z,4.72
2023-01-07T05:20:43.231Z,4.43
2023-01-07T05:23:09.550Z,5.10
2023-01-07T05:25:35.887Z,4.80
2023-01-07T05:28:02.190Z,5.15
2023-01-07T05:30:28.599Z,4.55
2023-01-07T05:32:54.973Z,4.63
2023-01-07T05:35:21.361Z,4.72
2023-01-07T05:37:47.673Z,4.38
2023-01-07T05:40:14.224Z,4.32
2023-01-07T05:42:40.724Z,4.45
2023-01-07T05:45:07.497Z,4.22
2023-01-07T05:47:33.843Z,4.65
2023-01-07T05:50:00.139Z,4.18
2023-01-07T05:52:26.577Z,5.20
2023-01-07T05:54:52.905Z,4.20
2023-01-07T05:57:19.285Z,4.45
2023-01-07T05:59:45.772Z,4.45
2023-01-07T06:02:12.135Z,3.92
2023-01-07T06:04:38.503Z,4.30
2023-01-07T06:07:04.845Z,4.05
2023-01-07T06:09:31.223Z,4.32
2023-01-07T06:11:57.538Z,4.32
2023-01-07T06:14:23.869Z,3.67
2023-01-07T06:16:50.396Z,3.45
2023-01-07T06:19:16.744Z,3.85
2023-01-07T06:21:43.092Z,3.40
2023-01-07T06:24:10.407Z,3.58
2023-01-07T06:26:36.698Z,2.75
2023-01-07T06:29:03.034Z,3.60
2023-01-07T06:31:29.397Z,3.25
2023-01-07T06:33:55.700Z,3.63
2023-01-07T06:36:22.054Z,2.65
2023-01-07T06:38:48.418Z,2.72
2023-01-07T06:41:14.701Z,3.30
2023-01-07T06:43:41.030Z,2.80
2023-01-07T06:46:07.501Z,3.25
2023-01-07T06:48:33.810Z,3.10
2023-01-07T06:51:00.149Z,2.90
2023-01-07T06:53:26.557Z,3.38
2023-01-07T06:55:52.976Z,3.42
2023-01-07T06:58:19.330Z,3.40
2023-01-07T07:00:45.969Z,3.70
2023-01-07T07:03:12.390Z,3.10
2023-01-07T07:05:38.841Z,2.80
2023-01-07T07:08:05.990Z,3.10
2023-01-07T07:10:32.489Z,3.00
2023-01-07T07:12:58.807Z,2.97
2023-01-07T07:15:25.184Z,2.97
2023-01-07T07:17:51.455Z,3.30
2023-01-07T07:20:17.791Z,2.58
2023-01-07T07:22:45.439Z,2.63
2023-01-07T07:25:12.215Z,2.90
2023-01-07T07:27:38.519Z,2.50
2023-01-07T07:30:05.173Z,3.25
2023-01-07T07:32:31.439Z,2.85
2023-01-07T07:34:57.706Z,2.50
2023-01-07T07:37:24.082Z,2.30
2023-01-07T07:39:50.426Z,2.20
2023-01-07T07:42:16.711Z,2.20
2023-01-07T07:44:43.002Z,1.70
2023-01-07T07:47:09.818Z,2.13
2023-01-07T07:49:36.137Z,1.95
2023-01-07T07:52:02.484Z,2.00
2023-01-07T07:54:28.849Z,1.88
2023-01-07T07:56:55.313Z,2.03
2023-01-07T07:59:21.623Z,1.80
2023-01-07T08:01:48.131Z,1.85
2023-01-07T08:04:14.564Z,2.60
2023-01-07T08:06:40.890Z,1.60
2023-01-07T08:09:07.204Z,1.40
2023-01-07T08:11:33.670Z,1.88
2023-01-07T08:14:00.011Z,2.47
2023-01-07T08:16:26.441Z,2.45
2023-01-07T08:18:52.858Z,1.65
2023-01-07T08:21:19.165Z,1.77
2023-01-07T08:23:45.448Z,1.38
2023-01-07T08:26:11.752Z,1.60
2023-01-07T08:28:38.159Z,1.77
2023-01-07T08:31:05.692Z,1.65
2023-01-07T08:33:37.408Z,1.80
2023-01-07T08:36:18.108Z,1.63
2023-01-07T08:38:54.340Z,1.70
2023-01-07T08:41:24.748Z,1.90
2023-01-07T08:43:51.310Z,1.73
2023-01-07T08:46:17.713Z,1.90
2023-01-07T08:48:44.144Z,1.55
2023-01-07T08:51:10.521Z,1.45
2023-01-07T08:53:37.211Z,1.50
2023-01-07T08:56:03.569Z,1.40
2023-01-07T08:58:29.838Z,1.52
2023-01-07T09:01:00.268Z,1.70
2023-01-07T09:03:26.603Z,1.30
2023-01-07T09:05:52.866Z,1.00
2023-01-07T09:08:19.125Z,1.17
2023-01-07T09:10:45.404Z,1.33
2023-01-07T09:13:11.776Z,1.40
2023-01-07T09:15:38.059Z,1.55
2023-01-07T09:18:04.378Z,1.30
2023-01-07T09:20:30.795Z,2.20
2023-01-07T09:22:58.364Z,2.25
2023-01-07T09:25:24.702Z,1.67
2023-01-07T09:27:51.028Z,1.50
2023-01-07T09:30:17.820Z,1.50
2023-01-07T09:32:44.361Z,1.20
2023-01-07T09:35:10.908Z,1.33
2023-01-07T09:37:37.376Z,1.38
2023-01-07T09:40:05.755Z,1.45
2023-01-07T09:42:41.173Z,1.05
2023-01-07T09:45:16.157Z,1.30
2023-01-07T09:47:43.805Z,1.10
2023-01-07T09:50:25.318Z,1.40
2023-01-07T09:52:53.641Z,1.15
2023-01-07T09:55:23.086Z,1.50
2023-01-07T09:57:49.623Z,1.30
2023-01-07T10:00:20.867Z,1.38
2023-01-07T10:02:47.209Z,1.25
2023-01-07T10:05:13.703Z,1.40
2023-01-07T10:07:44.923Z,1.63
2023-01-07T10:10:23.656Z,1.70
2023-01-07T10:12:59.374Z,1.50
2023-01-07T10:15:37.768Z,1.70
2023-01-07T10:18:12.216Z,1.67
2023-01-07T10:20:38.654Z,1.70
2023-01-07T10:23:28.496Z,1.35
2023-01-07T10:25:56.341Z,1.53
2023-01-07T10:28:25.573Z,1.77
2023-01-07T10:30:52.214Z,1.50
2023-01-07T10:33:19.223Z,1.45
2023-01-07T10:35:47.842Z,1.50
2023-01-07T10:38:18.157Z,1.40
2023-01-07T10:40:48.713Z,1.52
2023-01-07T10:45:52.241Z,1.40
2023-01-07T10:48:24.668Z,1.30
2023-01-07T10:50:51.076Z,2.00
2023-01-07T10:53:19.179Z,1.60
2023-01-07T10:55:51.894Z,1.25
2023-01-07T10:58:18.328Z,1.33
2023-01-07T11:00:48.029Z,1.40
2023-01-07T11:03:22.006Z,1.10
2023-01-07T11:05:51.533Z,1.02
2023-01-07T11:08:29.665Z,1.30
2023-01-07T11:11:03.707Z,1.35
2023-01-07T11:16:31.135Z,1.33
2023-01-07T11:19:01.292Z,1.10
2023-01-07T11:21:43.160Z,1.50
2023-01-07T11:24:22.382Z,1.02
2023-01-07T11:26:49.091Z,1.10
2023-01-07T11:29:46.940Z,0.82
2023-01-07T11:32:32.821Z,1.30
2023-01-07T11:35:21.738Z,1.05
2023-01-07T11:37:49.461Z,1.20
2023-01-07T11:40:16.053Z,1.15
2023-01-07T11:42:59.516Z,1.00
2023-01-07T11:45:26.026Z,0.90
2023-01-07T11:48:01.728Z,1.38
2023-01-07T11:50:37.636Z,1.23
2023-01-07T11:53:21.748Z,1.08
2023-01-07T11:56:02.338Z,1.10
2023-01-07T11:58:34.992Z,1.20
2023-01-07T12:01:04.737Z,1.60
2023-01-07T12:03:31.736Z,2.00
2023-01-07T12:05:59.917Z,2.45
2023-01-07T12:08:27.380Z,1.50
2023-01-07T12:10:55.457Z,1.08
2023-01-07T12:13:25.425Z,1.23
2023-01-07T12:15:57.836Z,0.90
2023-01-07T12:18:33.621Z,0.98
2023-01-07T12:21:09.318Z,0.93
2023-01-07T12:23:41.706Z,1.00
2023-01-07T12:26:33.678Z,0.90
2023-01-07T12:29:06.797Z,1.10
2023-01-07T12:31:44.142Z,1.00
2023-01-07T12:34:19.348Z,0.90
2023-01-07T12:37:01.913Z,1.20
2023-01-07T12:39:38.137Z,1.80
2023-01-07T12:42:25.062Z,1.00
2023-01-07T12:44:52.727Z,1.00
2023-01-07T12:47:30.447Z,1.02
2023-01-07T12:52:35.599Z,1.10
2023-01-07T12:55:01.973Z,1.10
2023-01-07T12:57:29.507Z,1.00
2023-01-07T13:00:02.882Z,1.10
2023-01-07T13:05:16.336Z,1.00
2023-01-07T13:07:49.724Z,1.00
2023-01-07T13:10:19.111Z,1.42
2023-01-07T13:12:47.625Z,1.10
2023-01-07T13:15:21.853Z,1.08
2023-01-07T13:17:49.293Z,1.25
2023-01-07T13:20:16.641Z,1.65
2023-01-07T13:22:48.811Z,1.48
2023-01-07T13:25:27.395Z,1.20
2023-01-07T13:27:53.673Z,1.40
2023-01-07T13:30:26.642Z,1.10
2023-01-07T13:33:19.013Z,1.40
2023-01-07T13:35:53.048Z,1.13
2023-01-07T13:38:34.424Z,1.13
2023-01-07T13:41:09.783Z,1.50
2023-01-07T13:43:59.112Z,1.48
2023-01-07T13:46:30.395Z,1.25
2023-01-07T13:48:56.724Z,1.80
2023-01-07T13:51:31.026Z,1.50
2023-01-07T13:53:57.447Z,1.20
2023-01-07T13:56:23.769Z,1.58
2023-01-07T13:58:53.477Z,1.55
2023-01-07T14:01:20.549Z,2.47
2023-01-07T14:04:02.480Z,1.73
2023-01-07T14:06:39.127Z,1.65
2023-01-07T14:09:08.109Z,1.60
2023-01-07T14:11:35.334Z,1.40
2023-01-07T14:14:11.955Z,1.30
2023-01-07T14:17:02.338Z,1.38
2023-01-07T14:19:35.521Z,1.60
2023-01-07T14:22:04.607Z,1.80
2023-01-07T14:24:30.859Z,1.48
2023-01-07T14:27:32.385Z,1.70
2023-01-07T14:30:15.967Z,1.80
2023-01-07T14:32:43.872Z,1.50
2023-01-07T14:35:10.112Z,1.58
2023-01-07T14:37:42.015Z,1.63
2023-01-07T14:40:32.760Z,1.73
2023-01-07T14:45:37.112Z,1.45
2023-01-07T14:48:09.110Z,1.92
2023-01-07T14:50:47.530Z,2.05
2023-01-07T14:53:32.434Z,1.70
2023-01-07T14:56:14.597Z,2.60
2023-01-07T14:58:52.931Z,2.00
2023-01-07T15:01:30.347Z,1.90
2023-01-07T15:04:15.649Z,1.98
2023-01-07T15:06:43.175Z,1.85
2023-01-07T15:09:31.064Z,1.70
2023-01-07T15:12:18.904Z,2.30
2023-01-07T15:15:08.286Z,1.70
2023-01-07T15:17:37.994Z,2.00
2023-01-07T15:20:05.202Z,1.90
2023-01-07T15:22:37.820Z,2.58
2023-01-07T15:25:06.953Z,2.42
2023-01-07T15:27:33.288Z,2.08
2023-01-07T15:30:00.678Z,1.90
2023-01-07T15:32:30.002Z,2.22
2023-01-07T15:34:56.912Z,1.95
2023-01-07T15:37:24.315Z,2.15
2023-01-07T15:39:58.786Z,2.00
2023-01-07T15:42:26.683Z,2.75
2023-01-07T15:44:54.021Z,2.50
2023-01-07T15:47:43.376Z,2.20
2023-01-07T15:50:18.495Z,3.05
2023-01-07T15:52:52.047Z,3.05
2023-01-07T15:55:28.863Z,1.90
2023-01-07T15:58:05.901Z,2.28
2023-01-07T16:00:34.663Z,2.08
2023-01-07T16:03:01.428Z,1.98
2023-01-07T16:05:27.925Z,2.00
2023-01-07T16:07:55.344Z,2.45
2023-01-07T16:10:26.151Z,2.25
2023-01-07T16:12:53.794Z,3.15
2023-01-07T16:15:30.325Z,3.00
2023-01-07T16:17:58.410Z,2.22
2023-01-07T16:20:28.101Z,2.78
2023-01-07T16:23:02.856Z,2.70
2023-01-07T16:25:35.612Z,2.88
2023-01-07T16:28:02.259Z,2.47
2023-01-07T16:30:28.586Z,2.08
2023-01-07T16:32:55.112Z,3.20
2023-01-07T16:35:25.587Z,1.95
2023-01-07T16:37:53.740Z,2.17
2023-01-07T16:40:23.951Z,2.40
2023-01-07T16:42:50.364Z,2.28
2023-01-07T16:45:26.729Z,2.70
2023-01-07T16:48:12.564Z,2.40
2023-01-07T16:50:40.920Z,2.40
2023-01-07T16:53:22.198Z,2.22
2023-01-07T16:55:48.740Z,2.30
2023-01-07T16:58:24.412Z,2.67
2023-01-07T17:00:51.967Z,2.65
2023-01-07T17:03:18.515Z,2.80
2023-01-07T17:05:57.486Z,2.47
2023-01-07T17:08:23.792Z,2.20
2023-01-07T17:10:57.643Z,3.00
2023-01-07T17:13:23.863Z,3.42
2023-01-07T17:15:50.280Z,3.85
2023-01-07T17:18:16.570Z,3.38
2023-01-07T17:20:50.840Z,3.13
2023-01-07T17:23:26.162Z,2.50
2023-01-07T17:26:06.051Z,3.42
2023-01-07T17:28:36.756Z,3.30
2023-01-07T17:31:03.613Z,2.60
2023-01-07T17:33:29.901Z,2.75
2023-01-07T17:35:57.499Z,3.20
2023-01-07T17:38:23.936Z,2.40
2023-01-07T17:40:50.252Z,2.70
2023-01-07T17:43:39.044Z,3.10
2023-01-07T17:46:06.757Z,3.30
2023-01-07T17:48:33.365Z,3.70
2023-01-07T17:51:01.229Z,2.65
2023-01-07T17:53:29.654Z,4.20
2023-01-07T17:55:56.146Z,3.90
2023-01-07T17:58:27.611Z,4.15
2023-01-07T18:00:54.050Z,3.42
2023-01-07T18:03:20.733Z,4.40
2023-01-07T18:05:47.042Z,3.00
2023-01-07T18:08:13.354Z,3.00
2023-01-07T18:10:58.037Z,3.53
2023-01-07T18:13:26.415Z,3.72
2023-01-07T18:15:52.719Z,3.42
2023-01-07T18:18:18.953Z,3.58
2023-01-07T18:20:45.232Z,2.80
2023-01-07T18:23:11.731Z,3.28
2023-01-07T18:25:38.175Z,3.90
2023-01-07T18:28:04.508Z,2.95
2023-01-07T18:30:30.788Z,3.40
2023-01-07T18:32:57.012Z,3.97
2023-01-07T18:35:23.252Z,3.72
2023-01-07T18:37:50.140Z,3.40
2023-01-07T18:40:16.774Z,3.75
2023-01-07T18:42:45.452Z,3.47
2023-01-07T18:45:12.309Z,3.38
2023-01-07T18:47:41.909Z,3.95
2023-01-07T18:50:08.977Z,3.10
2023-01-07T18:52:37.474Z,3.13
2023-01-07T18:55:03.856Z,3.40
2023-01-07T18:57:30.099Z,3.33
2023-01-07T18:59:56.368Z,3.63
2023-01-07T19:02:22.707Z,4.63
2023-01-07T19:04:49.697Z,4.30
2023-01-07T19:07:16.916Z,4.22
2023-01-07T19:09:43.348Z,4.80
2023-01-07T19:12:11.244Z,4.32
2023-01-07T19:14:38.084Z,6.18
2023-01-07T19:17:04.476Z,4.70
2023-01-07T19:19:39.974Z,3.90
2023-01-07T19:22:10.067Z,4.90
2023-01-07T19:24:41.814Z,3.33
2023-01-07T19:27:09.027Z,4.90
2023-01-07T19:29:35.465Z,2.80
2023-01-07T19:32:01.834Z,6.63
2023-01-07T19:34:28.146Z,4.60
2023-01-07T19:36:54.451Z,4.38
2023-01-07T19:39:21.848Z,4.00
2023-01-07T19:41:48.548Z,3.97
2023-01-07T19:44:15.292Z,3.83
2023-01-07T19:46:42.513Z,4.15
2023-01-07T19:49:09.604Z,3.28
2023-01-07T19:51:37.783Z,3.95
2023-01-07T19:54:04.548Z,3.22
2023-01-07T19:56:30.897Z,3.40
2023-01-07T19:58:58.340Z,3.35
2023-01-07T20:01:26.456Z,3.17
2023-01-07T20:03:53.615Z,5.03
2023-01-07T20:06:21.331Z,3.30
2023-01-07T20:08:47.852Z,2.90
2023-01-07T20:11:14.795Z,3.75
2023-01-07T20:13:43.964Z,4.03
2023-01-07T20:16:11.883Z,4.68
2023-01-07T20:18:39.022Z,3.47
2023-01-07T20:21:05.400Z,3.47
2023-01-07T20:23:31.728Z,4.43
2023-01-07T20:25:59.949Z,3.35
2023-01-07T20:28:26.185Z,3.17
2023-01-07T20:30:52.527Z,4.10
2023-01-07T20:33:18.781Z,3.00
2023-01-07T20:35:46.562Z,3.67
2023-01-07T20:38:13.460Z,3.90
2023-01-07T20:40:40.498Z,3.40
2023-01-07T20:43:07.168Z,2.70
2023-01-07T20:45:36.206Z,3.38
2023-01-07T20:48:04.259Z,3.55
2023-01-07T20:50:31.882Z,3.75
2023-01-07T20:52:58.112Z,2.60
2023-01-07T20:55:24.902Z,3.60
2023-01-07T20:57:51.305Z,3.20
2023-01-07T21:00:17.816Z,3.35
2023-01-07T21:02:44.173Z,3.05
2023-01-07T21:05:10.452Z,3.17
2023-01-07T21:07:36.697Z,2.80
2023-01-07T21:10:03.080Z,2.88
2023-01-07T21:12:29.333Z,2.88
2023-01-07T21:14:56.642Z,2.70
2023-01-07T21:17:23.063Z,2.33
2023-01-07T21:19:49.571Z,2.47
2023-01-07T21:22:15.852Z,3.85
2023-01-07T21:24:42.163Z,2.88
2023-01-07T21:27:08.511Z,3.67
2023-01-07T21:29:34.833Z,3.92
2023-01-07T21:32:02.903Z,3.42
2023-01-07T21:34:29.560Z,4.70
2023-01-07T21:36:55.826Z,4.97
2023-01-07T21:39:22.123Z,4.57
2023-01-07T21:41:48.384Z,3.47
2023-01-07T21:44:14.915Z,5.15
2023-01-07T21:46:41.398Z,5.82
2023-01-07T21:49:08.244Z,4.47
2023-01-07T21:51:34.576Z,3.70
2023-01-07T21:54:00.940Z,3.60
2023-01-07T21:56:28.674Z,4.63
2023-01-07T21:58:54.928Z,4.10
2023-01-07T22:01:21.503Z,4.63
2023-01-07T22:03:48.816Z,6.03
2023-01-07T22:06:19.849Z,4.15
2023-01-07T22:08:46.335Z,3.70
2023-01-07T22:11:13.639Z,4.63
2023-01-07T22:13:40.071Z,4.30
2023-01-07T22:16:06.794Z,3.60
2023-01-07T22:18:33.095Z,3.15
2023-01-07T22:20:59.336Z,2.58
2023-01-07T22:23:25.640Z,3.67
2023-01-07T22:25:51.973Z,3.70
2023-01-07T22:28:18.892Z,4.38
2023-01-07T22:30:48.890Z,3.97
2023-01-07T22:33:15.266Z,3.20
2023-01-07T22:35:41.758Z,3.42
2023-01-07T22:38:08.290Z,3.72
2023-01-07T22:40:36.318Z,2.92
2023-01-07T22:43:06.485Z,2.90
2023-01-07T22:45:37.767Z,2.50
2023-01-07T22:48:04.412Z,2.47
2023-01-07T22:50:30.925Z,2.90
2023-01-07T22:52:57.141Z,2.90
2023-01-07T22:55:23.592Z,3.13
2023-01-07T22:57:49.920Z,2.95
2023-01-07T23:00:36.523Z,2.97
2023-01-07T23:03:02.836Z,3.53
2023-01-07T23:05:29.226Z,3.20
2023-01-07T23:07:57.096Z,2.90
2023-01-07T23:10:23.329Z,2.75
2023-01-07T23:12:49.568Z,3.25
2023-01-07T23:15:16.003Z,2.78
2023-01-07T23:17:42.254Z,2.97
2023-01-07T23:20:08.619Z,2.78
2023-01-07T23:22:34.885Z,3.17
2023-01-07T23:25:01.109Z,2.72
2023-01-07T23:27:27.340Z,2.70
2023-01-07T23:29:53.644Z,2.95
2023-01-07T23:32:19.993Z,3.55
2023-01-07T23:34:46.286Z,3.00
2023-01-07T23:37:12.612Z,3.10
2023-01-07T23:39:38.902Z,2.65
2023-01-07T23:42:05.154Z,2.92
2023-01-07T23:44:31.378Z,3.10
2023-01-07T23:46:57.702Z,3.05
2023-01-07T23:49:23.940Z,3.47
2023-01-07T23:51:50.229Z,3.03
2023-01-07T23:54:16.651Z,3.10
2023-01-07T23:56:42.907Z,2.42
2023-01-07T23:59:09.544Z,1.40
